createdAt,value
2022-08-14T00:02:18.287Z,25.00
2022-08-14T00:04:47.532Z,24.99
2022-08-14T00:07:16.232Z,24.97
2022-08-14T00:10:01.502Z,24.95
2022-08-14T00:12:37.753Z,24.94
2022-08-14T00:15:11.814Z,24.90
2022-08-14T00:17:47.347Z,24.91
2022-08-14T00:20:23.698Z,24.87
2022-08-14T00:22:57.802Z,24.84
2022-08-14T00:25:30.602Z,24.75
2022-08-14T00:28:15.128Z,24.78
2022-08-14T00:30:47.052Z,24.82
2022-08-14T00:33:16.807Z,24.79
2022-08-14T00:36:35.040Z,24.79
2022-08-14T00:38:34.883Z,24.78
2022-08-14T00:41:05.094Z,24.79
2022-08-14T00:43:35.434Z,24.76
2022-08-14T00:46:08.063Z,24.76
2022-08-14T00:48:38.156Z,24.77
2022-08-14T00:51:36.724Z,24.76
2022-08-14T00:54:16.759Z,24.70
2022-08-14T00:57:27.454Z,24.66
2022-08-14T01:00:37.183Z,24.52
2022-08-14T01:03:11.819Z,24.56
2022-08-14T01:06:07.343Z,24.58
2022-08-14T01:08:51.134Z,24.55
2022-08-14T01:11:35.426Z,24.62
2022-08-14T01:14:25.382Z,24.64
2022-08-14T01:16:55.668Z,24.61
2022-08-14T01:19:43.401Z,24.54
2022-08-14T01:22:13.510Z,24.45
2022-08-14T01:24:48.382Z,24.39
2022-08-14T01:27:22.312Z,24.39
2022-08-14T01:30:03.563Z,24.53
2022-08-14T01:32:50.969Z,24.58
2022-08-14T01:36:04.337Z,24.60
2022-08-14T01:38:10.370Z,24.54
2022-08-14T01:40:41.641Z,24.54
2022-08-14T01:43:14.261Z,24.54
2022-08-14T01:45:48.950Z,24.53
2022-08-14T01:48:30.384Z,24.55
2022-08-14T01:51:01.288Z,24.53
2022-08-14T01:53:35.705Z,24.51
2022-08-14T01:56:12.042Z,24.50
2022-08-14T01:58:57.367Z,24.47
2022-08-14T02:01:27.378Z,24.46
2022-08-14T02:03:57.415Z,24.45
2022-08-14T02:06:32.960Z,24.43
2022-08-14T02:09:19.179Z,24.43
2022-08-14T02:11:54.457Z,24.43
2022-08-14T02:14:31.546Z,24.42
2022-08-14T02:17:02.081Z,24.34
2022-08-14T02:19:32.540Z,24.37
2022-08-14T02:22:03.374Z,24.35
2022-08-14T02:24:38.805Z,24.31
2022-08-14T02:28:25.654Z,24.30
2022-08-14T02:30:02.159Z,24.27
2022-08-14T02:32:46.398Z,24.24
2022-08-14T02:35:18.729Z,24.20
2022-08-14T02:37:49.472Z,24.21
2022-08-14T02:40:31.799Z,24.22
2022-08-14T02:43:02.384Z,24.26
2022-08-14T02:45:38.522Z,24.25
2022-08-14T02:49:04.066Z,24.22
2022-08-14T02:51:04.988Z,24.20
2022-08-14T02:53:33.719Z,24.18
2022-08-14T02:56:10.244Z,24.17
2022-08-14T02:59:01.868Z,24.18
2022-08-14T03:01:43.566Z,24.16
2022-08-14T03:04:20.272Z,24.19
2022-08-14T03:06:58.130Z,24.17
2022-08-14T03:10:25.040Z,24.17
2022-08-14T03:12:30.744Z,24.14
2022-08-14T03:15:03.668Z,24.12
2022-08-14T03:17:41.133Z,24.12
2022-08-14T03:20:23.683Z,24.09
2022-08-14T03:22:52.698Z,24.07
2022-08-14T03:25:23.148Z,24.01
2022-08-14T03:27:59.056Z,24.00
2022-08-14T03:30:37.116Z,23.99
2022-08-14T03:33:10.361Z,23.98
2022-08-14T03:36:00.102Z,23.99
2022-08-14T03:39:13.172Z,23.98
2022-08-14T03:41:23.178Z,23.99
2022-08-14T03:44:00.996Z,23.97
2022-08-14T03:46:52.692Z,23.95
2022-08-14T03:49:28.844Z,23.94
2022-08-14T03:52:00.543Z,23.90
2022-08-14T03:54:30.087Z,23.89
2022-08-14T03:57:02.819Z,23.88
2022-08-14T03:59:34.089Z,23.90
2022-08-14T04:02:09.607Z,23.90
2022-08-14T04:04:53.381Z,23.84
2022-08-14T04:07:22.435Z,23.81
2022-08-14T04:09:50.886Z,23.80
2022-08-14T04:12:26.513Z,23.81
2022-08-14T04:14:56.766Z,23.71
2022-08-14T04:17:26.277Z,23.65
2022-08-14T04:19:55.550Z,23.71
2022-08-14T04:22:25.305Z,23.77
2022-08-14T04:24:54.195Z,23.74
2022-08-14T04:27:23.231Z,23.73
2022-08-14T04:29:51.939Z,23.71
2022-08-14T04:33:01.778Z,23.71
2022-08-14T04:35:12.189Z,23.68
2022-08-14T04:38:07.826Z,23.66
2022-08-14T04:41:09.877Z,23.53
2022-08-14T04:43:40.115Z,23.47
2022-08-14T04:46:11.830Z,23.47
2022-08-14T04:49:00.535Z,23.33
2022-08-14T04:51:30.071Z,23.28
2022-08-14T04:54:05.967Z,23.29
2022-08-14T04:56:35.672Z,23.22
2022-08-14T04:59:10.474Z,23.15
2022-08-14T05:01:48.044Z,23.08
2022-08-14T05:04:20.616Z,22.95
2022-08-14T05:06:54.153Z,22.88
2022-08-14T05:09:24.273Z,22.77
2022-08-14T05:11:53.075Z,22.53
2022-08-14T05:14:46.595Z,22.49
2022-08-14T05:17:12.292Z,22.47
2022-08-14T05:19:45.011Z,22.48
2022-08-14T05:22:30.748Z,22.60
2022-08-14T05:24:59.433Z,22.61
2022-08-14T05:27:31.035Z,22.77
2022-08-14T05:30:01.216Z,22.40
2022-08-14T05:32:29.716Z,22.52
2022-08-14T05:35:00.912Z,22.48
2022-08-14T05:37:30.889Z,22.61
2022-08-14T05:40:01.092Z,22.42
2022-08-14T05:42:34.058Z,22.57
2022-08-14T05:45:11.188Z,22.18
2022-08-14T05:47:43.009Z,22.35
2022-08-14T05:50:19.269Z,22.33
2022-08-14T05:52:50.329Z,22.45
2022-08-14T05:55:22.051Z,22.33
2022-08-14T05:57:54.727Z,22.45
2022-08-14T06:00:31.561Z,22.61
2022-08-14T06:03:07.138Z,22.48
2022-08-14T06:05:38.813Z,22.32
2022-08-14T06:08:31.504Z,22.39
2022-08-14T06:11:06.096Z,22.60
2022-08-14T06:13:44.720Z,22.69
2022-08-14T06:16:17.482Z,22.62
2022-08-14T06:18:48.352Z,22.62
2022-08-14T06:21:18.807Z,22.38
2022-08-14T06:23:48.872Z,22.35
2022-08-14T06:26:20.645Z,22.45
2022-08-14T06:28:51.996Z,22.42
2022-08-14T06:31:22.866Z,22.58
2022-08-14T06:35:11.363Z,22.58
2022-08-14T06:36:41.321Z,22.44
2022-08-14T06:39:10.973Z,22.63
2022-08-14T06:41:58.234Z,22.65
2022-08-14T06:44:30.809Z,22.70
2022-08-14T06:47:04.435Z,22.60
2022-08-14T06:49:42.816Z,22.66
2022-08-14T06:52:16.675Z,22.74
2022-08-14T06:54:46.764Z,22.75
2022-08-14T06:57:15.225Z,22.69
2022-08-14T06:59:43.777Z,22.59
2022-08-14T07:02:29.587Z,22.81
2022-08-14T07:05:20.968Z,22.67
2022-08-14T07:07:52.864Z,22.84
2022-08-14T07:10:24.815Z,22.83
2022-08-14T07:13:01.303Z,22.81
2022-08-14T07:15:39.488Z,22.81
2022-08-14T07:18:09.551Z,22.84
2022-08-14T07:20:38.646Z,22.62
2022-08-14T07:23:19.593Z,22.69
2022-08-14T07:25:51.314Z,22.73
2022-08-14T07:28:23.422Z,22.81
2022-08-14T07:30:52.715Z,22.90
2022-08-14T07:33:24.812Z,22.98
2022-08-14T07:36:00.180Z,23.11
2022-08-14T07:38:35.899Z,23.07
2022-08-14T07:41:06.936Z,23.09
2022-08-14T07:43:44.010Z,23.09
2022-08-14T07:46:21.283Z,22.91
2022-08-14T07:48:57.991Z,22.86
2022-08-14T07:51:34.249Z,23.00
2022-08-14T07:54:11.412Z,23.21
2022-08-14T07:56:47.835Z,23.28
2022-08-14T07:59:18.882Z,23.35
2022-08-14T08:01:51.529Z,23.42
2022-08-14T08:04:25.002Z,23.48
2022-08-14T08:06:54.841Z,23.52
2022-08-14T08:09:32.073Z,23.55
2022-08-14T08:12:04.577Z,23.55
2022-08-14T08:14:56.183Z,23.63
2022-08-14T08:17:24.566Z,23.68
2022-08-14T08:19:53.101Z,23.72
2022-08-14T08:22:23.778Z,23.72
2022-08-14T08:24:57.962Z,23.74
2022-08-14T08:27:26.579Z,23.77
2022-08-14T08:30:05.083Z,23.86
2022-08-14T08:32:42.893Z,23.96
2022-08-14T08:35:17.461Z,24.07
2022-08-14T08:37:47.045Z,24.06
2022-08-14T08:40:31.242Z,23.95
2022-08-14T08:43:00.331Z,24.11
2022-08-14T08:45:30.345Z,24.13
2022-08-14T08:47:58.903Z,24.29
2022-08-14T08:53:02.245Z,24.36
2022-08-14T08:55:34.567Z,24.34
2022-08-14T08:58:12.643Z,24.48
2022-08-14T09:00:48.751Z,24.39
2022-08-14T09:03:20.680Z,24.40
2022-08-14T09:05:54.356Z,24.49
2022-08-14T09:08:31.503Z,24.43
2022-08-14T09:11:19.603Z,24.58
2022-08-14T09:13:51.907Z,24.56
2022-08-14T09:16:23.612Z,24.65
2022-08-14T09:18:53.951Z,24.82
2022-08-14T09:21:24.719Z,24.93
2022-08-14T09:24:29.414Z,25.03
2022-08-14T09:26:49.232Z,25.10
2022-08-14T09:29:20.090Z,25.13
2022-08-14T09:31:57.520Z,25.08
2022-08-14T09:34:47.518Z,25.31
2022-08-14T09:37:43.584Z,25.39
2022-08-14T09:40:21.294Z,25.35
2022-08-14T09:43:01.884Z,25.50
2022-08-14T09:45:39.821Z,25.57
2022-08-14T09:48:16.360Z,25.69
2022-08-14T09:50:48.057Z,25.75
2022-08-14T09:54:18.470Z,25.68
2022-08-14T09:56:30.259Z,25.90
2022-08-14T09:59:15.263Z,25.95
2022-08-14T10:01:46.249Z,25.84
2022-08-14T10:04:34.437Z,25.92
2022-08-14T10:07:08.518Z,25.78
2022-08-14T10:10:00.202Z,25.90
2022-08-14T10:12:44.810Z,25.99
2022-08-14T10:15:20.573Z,26.15
2022-08-14T10:17:50.303Z,26.23
2022-08-14T10:20:40.809Z,26.20
2022-08-14T10:23:15.825Z,26.43
2022-08-14T10:25:47.416Z,26.32
2022-08-14T10:28:51.417Z,26.55
2022-08-14T10:31:18.056Z,26.49
2022-08-14T10:34:00.317Z,26.49
2022-08-14T10:36:36.941Z,26.75
2022-08-14T10:39:17.357Z,27.08
2022-08-14T10:41:49.242Z,26.74
2022-08-14T10:44:24.973Z,26.80
2022-08-14T10:47:41.249Z,26.76
2022-08-14T10:50:00.768Z,26.96
2022-08-14T10:52:33.893Z,27.13
2022-08-14T10:55:09.039Z,27.17
2022-08-14T10:57:51.582Z,27.11
2022-08-14T11:00:29.964Z,27.09
2022-08-14T11:03:09.722Z,27.13
2022-08-14T11:05:43.329Z,27.19
2022-08-14T11:08:14.296Z,27.24
2022-08-14T11:10:45.965Z,27.20
2022-08-14T11:13:18.764Z,27.32
2022-08-14T11:15:48.855Z,27.46
2022-08-14T11:18:30.109Z,27.56
2022-08-14T11:21:02.182Z,27.37
2022-08-14T11:23:38.369Z,27.29
2022-08-14T11:26:10.475Z,27.61
2022-08-14T11:28:47.832Z,27.53
2022-08-14T11:31:22.039Z,27.62
2022-08-14T11:33:53.903Z,27.55
2022-08-14T11:37:02.139Z,27.38
2022-08-14T11:39:22.921Z,27.52
2022-08-14T11:42:07.764Z,27.56
2022-08-14T11:44:56.559Z,27.68
2022-08-14T11:47:35.228Z,27.98
2022-08-14T11:50:33.394Z,27.85
2022-08-14T11:53:04.913Z,27.94
2022-08-14T11:55:38.155Z,27.79
2022-08-14T11:58:09.582Z,27.91
2022-08-14T12:00:49.397Z,27.83
2022-08-14T12:03:26.920Z,27.99
2022-08-14T12:06:09.583Z,28.17
2022-08-14T12:09:00.214Z,28.10
2022-08-14T12:11:43.266Z,28.18
2022-08-14T12:14:30.461Z,28.22
2022-08-14T12:17:04.168Z,28.19
2022-08-14T12:19:37.340Z,28.39
2022-08-14T12:22:10.617Z,28.49
2022-08-14T12:24:46.294Z,28.42
2022-08-14T12:27:16.947Z,28.34
2022-08-14T12:29:54.405Z,28.27
2022-08-14T12:32:22.855Z,28.39
2022-08-14T12:34:55.249Z,28.62
2022-08-14T12:37:32.355Z,28.61
2022-08-14T12:40:11.346Z,28.71
2022-08-14T12:42:47.465Z,28.78
2022-08-14T12:45:31.350Z,28.95
2022-08-14T12:48:21.111Z,28.85
2022-08-14T12:50:54.559Z,28.93
2022-08-14T12:53:36.139Z,29.11
2022-08-14T12:56:21.968Z,29.15
2022-08-14T12:58:58.340Z,29.10
2022-08-14T13:01:29.724Z,29.15
2022-08-14T13:04:10.701Z,29.12
2022-08-14T13:06:40.437Z,29.14
2022-08-14T13:09:11.276Z,29.14
2022-08-14T13:11:44.836Z,29.32
2022-08-14T13:14:17.628Z,29.42
2022-08-14T13:16:50.504Z,29.45
2022-08-14T13:19:20.781Z,29.47
2022-08-14T13:21:58.759Z,29.39
2022-08-14T13:24:35.940Z,29.36
2022-08-14T13:27:05.240Z,29.26
2022-08-14T13:29:40.701Z,28.95
2022-08-14T13:32:12.893Z,28.79
2022-08-14T13:34:43.666Z,28.72
2022-08-14T13:37:15.441Z,28.63
2022-08-14T13:39:56.791Z,28.51
2022-08-14T13:42:30.316Z,28.54
2022-08-14T13:45:01.119Z,28.58
2022-08-14T13:47:32.944Z,28.70
2022-08-14T13:50:04.527Z,28.70
2022-08-14T13:52:58.990Z,28.61
2022-08-14T13:55:28.748Z,28.61
2022-08-14T13:58:03.762Z,28.59
2022-08-14T14:00:52.899Z,28.54
2022-08-14T14:03:26.174Z,28.59
2022-08-14T14:05:59.307Z,28.64
2022-08-14T14:08:45.816Z,28.57
2022-08-14T14:11:24.216Z,28.64
2022-08-14T14:13:54.232Z,28.67
2022-08-14T14:16:30.011Z,28.79
2022-08-14T14:19:08.697Z,28.68
2022-08-14T14:21:40.707Z,28.75
2022-08-14T14:24:14.942Z,28.79
2022-08-14T14:26:50.192Z,28.84
2022-08-14T14:29:24.204Z,28.79
2022-08-14T14:31:54.922Z,28.72
2022-08-14T14:34:30.331Z,28.66
2022-08-14T14:37:02.831Z,28.67
2022-08-14T14:39:35.346Z,28.81
2022-08-14T14:42:13.772Z,28.85
2022-08-14T14:44:53.031Z,28.86
2022-08-14T14:47:26.597Z,28.75
2022-08-14T14:49:57.064Z,28.74
2022-08-14T14:52:27.823Z,28.79
2022-08-14T14:54:58.824Z,28.93
2022-08-14T14:57:35.023Z,28.91
2022-08-14T15:00:08.765Z,28.95
2022-08-14T15:02:43.236Z,28.90
2022-08-14T15:05:14.055Z,28.98
2022-08-14T15:07:42.717Z,29.04
2022-08-14T15:10:26.998Z,28.94
2022-08-14T15:13:04.299Z,28.90
2022-08-14T15:15:36.928Z,28.97
2022-08-14T15:18:10.159Z,29.05
2022-08-14T15:20:57.518Z,28.99
2022-08-14T15:23:43.851Z,28.87
2022-08-14T15:26:31.300Z,28.90
2022-08-14T15:29:05.792Z,28.94
2022-08-14T15:31:36.587Z,28.91
2022-08-14T15:34:45.884Z,28.93
2022-08-14T15:37:01.516Z,29.01
2022-08-14T15:39:34.120Z,29.12
2022-08-14T15:42:14.680Z,29.08
2022-08-14T15:44:58.259Z,29.09
2022-08-14T15:47:31.536Z,29.13
2022-08-14T15:50:02.878Z,29.13
2022-08-14T15:52:35.353Z,29.13
2022-08-14T15:55:16.376Z,29.09
2022-08-14T15:58:01.689Z,29.08
2022-08-14T16:00:52.671Z,29.14
2022-08-14T16:03:27.552Z,29.18
2022-08-14T16:06:05.106Z,29.20
2022-08-14T16:08:34.321Z,29.21
2022-08-14T16:11:05.789Z,29.27
2022-08-14T16:13:41.647Z,29.23
2022-08-14T16:16:34.345Z,29.23
2022-08-14T16:19:09.618Z,29.23
2022-08-14T16:21:40.740Z,29.26
2022-08-14T16:24:33.103Z,29.27
2022-08-14T16:27:05.250Z,29.29
2022-08-14T16:29:53.374Z,29.25
2022-08-14T16:32:33.078Z,29.25
2022-08-14T16:35:04.860Z,29.24
2022-08-14T16:37:35.333Z,29.21
2022-08-14T16:40:04.636Z,29.23
2022-08-14T16:42:39.250Z,29.26
2022-08-14T16:45:25.316Z,29.25
2022-08-14T16:47:55.436Z,29.19
2022-08-14T16:50:40.384Z,29.17
2022-08-14T16:53:13.753Z,29.23
2022-08-14T16:55:53.432Z,29.21
2022-08-14T16:58:29.587Z,29.22
2022-08-14T17:01:24.293Z,29.20
2022-08-14T17:03:58.109Z,29.14
2022-08-14T17:06:47.247Z,29.14
2022-08-14T17:09:34.341Z,29.14
2022-08-14T17:12:07.894Z,29.11
2022-08-14T17:14:56.264Z,29.10
2022-08-14T17:17:29.338Z,29.06
2022-08-14T17:20:22.887Z,29.09
2022-08-14T17:22:53.336Z,29.05
2022-08-14T17:25:24.896Z,29.01
2022-08-14T17:28:50.302Z,29.00
2022-08-14T17:31:02.852Z,28.91
2022-08-14T17:33:40.847Z,28.87
2022-08-14T17:36:21.074Z,28.85
2022-08-14T17:38:59.783Z,28.83
2022-08-14T17:41:36.105Z,28.83
2022-08-14T17:44:33.492Z,28.82
2022-08-14T17:47:18.110Z,28.81
2022-08-14T17:49:52.086Z,28.79
2022-08-14T17:52:35.967Z,28.76
2022-08-14T17:55:12.787Z,28.72
2022-08-14T17:58:00.506Z,28.70
2022-08-14T18:00:30.597Z,28.65
2022-08-14T18:03:00.126Z,28.62
2022-08-14T18:06:07.433Z,28.59
2022-08-14T18:08:32.845Z,28.60
2022-08-14T18:11:03.469Z,28.57
2022-08-14T18:13:51.299Z,28.56
2022-08-14T18:16:22.139Z,28.56
2022-08-14T18:18:51.911Z,28.53
2022-08-14T18:21:24.145Z,28.50
2022-08-14T18:24:20.360Z,28.48
2022-08-14T18:27:02.676Z,28.46
2022-08-14T18:29:43.620Z,28.38
2022-08-14T18:32:40.363Z,28.29
2022-08-14T18:35:17.817Z,28.20
2022-08-14T18:37:55.774Z,28.09
2022-08-14T18:40:34.538Z,28.00
2022-08-14T18:43:04.193Z,28.01
2022-08-14T18:45:33.971Z,27.97
2022-08-14T18:48:50.257Z,27.92
2022-08-14T18:51:45.220Z,27.86
2022-08-14T18:54:29.714Z,27.82
2022-08-14T18:57:03.955Z,27.87
2022-08-14T18:59:36.990Z,27.75
2022-08-14T19:02:43.314Z,27.72
2022-08-14T19:05:13.409Z,27.62
2022-08-14T19:07:48.200Z,27.62
2022-08-14T19:10:33.418Z,27.58
2022-08-14T19:13:11.789Z,27.50
2022-08-14T19:15:43.556Z,27.52
2022-08-14T19:18:26.420Z,27.55
2022-08-14T19:20:58.645Z,27.48
2022-08-14T19:23:42.514Z,27.46
2022-08-14T19:26:35.367Z,27.33
2022-08-14T19:29:38.389Z,27.24
2022-08-14T19:32:39.222Z,27.33
2022-08-14T19:35:55.488Z,27.22
2022-08-14T19:38:54.412Z,27.07
2022-08-14T19:41:29.503Z,27.14
2022-08-14T19:44:10.403Z,27.08
2022-08-14T19:47:00.416Z,27.01
2022-08-14T19:50:24.659Z,26.99
2022-08-14T19:52:24.260Z,26.94
2022-08-14T19:54:53.114Z,26.93
2022-08-14T19:57:22.985Z,26.89
2022-08-14T20:00:01.882Z,26.85
2022-08-14T20:02:42.761Z,26.83
2022-08-14T20:05:12.425Z,26.79
2022-08-14T20:07:59.789Z,26.85
2022-08-14T20:11:04.106Z,26.82
2022-08-14T20:13:29.259Z,26.77
2022-08-14T20:16:12.321Z,26.66
2022-08-14T20:18:51.734Z,26.64
2022-08-14T20:21:21.413Z,26.63
2022-08-14T20:23:50.399Z,26.64
2022-08-14T20:26:31.814Z,26.64
2022-08-14T20:29:07.150Z,26.58
2022-08-14T20:31:38.494Z,26.61
2022-08-14T20:34:24.749Z,26.61
2022-08-14T20:37:04.639Z,26.56
2022-08-14T20:39:44.975Z,26.54
2022-08-14T20:42:50.405Z,26.54
2022-08-14T20:45:23.585Z,26.44
2022-08-14T20:48:01.204Z,26.34
2022-08-14T20:50:31.926Z,26.33
2022-08-14T20:53:05.628Z,26.26
2022-08-14T20:55:41.401Z,26.23
2022-08-14T20:58:38.720Z,26.24
2022-08-14T21:01:35.724Z,26.24
2022-08-14T21:04:12.114Z,26.19
2022-08-14T21:07:22.917Z,26.13
2022-08-14T21:09:43.771Z,26.15
2022-08-14T21:12:33.980Z,26.10
2022-08-14T21:15:11.279Z,26.09
2022-08-14T21:17:44.017Z,26.12
2022-08-14T21:20:26.486Z,26.08
2022-08-14T21:23:00.196Z,26.02
2022-08-14T21:25:31.723Z,25.91
2022-08-14T21:28:04.904Z,25.97
2022-08-14T21:30:51.228Z,25.95
2022-08-14T21:33:23.376Z,25.97
2022-08-14T21:35:55.540Z,25.95
2022-08-14T21:38:33.859Z,25.84
2022-08-14T21:41:41.813Z,25.84
2022-08-14T21:44:17.956Z,25.75
2022-08-14T21:46:50.716Z,25.84
2022-08-14T21:49:22.828Z,25.85
2022-08-14T21:51:58.913Z,25.86
2022-08-14T21:54:49.397Z,25.83
2022-08-14T21:57:55.829Z,25.85
2022-08-14T22:00:30.390Z,25.84
2022-08-14T22:03:04.578Z,25.82
2022-08-14T22:05:34.497Z,25.80
2022-08-14T22:08:07.407Z,25.78
2022-08-14T22:10:41.948Z,25.69
2022-08-14T22:13:11.659Z,25.65
2022-08-14T22:15:43.951Z,25.72
2022-08-14T22:18:20.296Z,25.63
2022-08-14T22:20:54.024Z,25.67
2022-08-14T22:23:25.884Z,25.62
2022-08-14T22:25:55.207Z,25.54
2022-08-14T22:28:27.594Z,25.66
2022-08-14T22:31:03.403Z,25.96
2022-08-14T22:33:32.259Z,26.03
2022-08-14T22:36:25.205Z,26.05
2022-08-14T22:38:54.582Z,26.06
2022-08-14T22:41:26.178Z,26.07
2022-08-14T22:44:02.417Z,25.83
2022-08-14T22:46:30.946Z,26.00
2022-08-14T22:48:59.561Z,26.07
2022-08-14T22:51:48.801Z,26.10
2022-08-14T22:54:51.295Z,26.13
2022-08-14T22:57:10.367Z,25.95
2022-08-14T22:59:39.827Z,25.97
2022-08-14T23:02:13.573Z,25.99
2022-08-14T23:04:54.313Z,25.84
2022-08-14T23:07:25.985Z,25.65
2022-08-14T23:10:33.399Z,25.48
2022-08-14T23:13:04.049Z,25.63
2022-08-14T23:15:34.025Z,25.88
2022-08-14T23:18:03.354Z,25.92
2022-08-14T23:20:36.107Z,26.04
2022-08-14T23:23:12.358Z,26.06
2022-08-14T23:25:59.311Z,26.05
2022-08-14T23:28:33.575Z,26.07
2022-08-14T23:31:34.426Z,26.09
2022-08-14T23:34:07.130Z,26.07
2022-08-14T23:36:53.730Z,26.02
2022-08-14T23:39:29.985Z,26.05
2022-08-14T23:42:02.285Z,26.05
2022-08-14T23:44:35.595Z,26.06
2022-08-14T23:47:10.604Z,26.04
2022-08-14T23:49:57.023Z,26.01
2022-08-14T23:52:57.401Z,26.00
2022-08-14T23:55:20.937Z,26.01
2022-08-14T23:57:58.052Z,26.01
